createdAt,value
2023-02-05T00:02:13.112Z,5.43
2023-02-05T00:05:17.720Z,5.09
2023-02-05T00:08:21.775Z,5.53
2023-02-05T00:11:31.874Z,5.19
2023-02-05T00:14:37.688Z,5.22
2023-02-05T00:18:12.355Z,5.24
2023-02-05T00:21:56.725Z,5.40
2023-02-05T00:25:21.047Z,5.09
2023-02-05T00:28:43.760Z,5.33
2023-02-05T00:32:02.108Z,5.23
2023-02-05T00:35:12.208Z,4.74
2023-02-05T00:38:28.138Z,5.56
2023-02-05T00:42:04.234Z,5.27
2023-02-05T00:46:08.288Z,5.12
2023-02-05T00:52:54.373Z,5.24
2023-02-05T01:00:16.715Z,5.05
2023-02-05T01:03:25.558Z,5.34
2023-02-05T01:07:04.896Z,5.16
2023-02-05T01:10:26.136Z,5.33
2023-02-05T01:13:36.432Z,5.50
2023-02-05T01:17:12.420Z,5.20
2023-02-05T01:25:09.859Z,5.18
2023-02-05T01:32:17.202Z,5.28
2023-02-05T01:36:18.591Z,5.39
2023-02-05T01:40:36.487Z,5.35
2023-02-05T01:50:18.524Z,5.24
2023-02-05T01:53:54.029Z,4.75
2023-02-05T01:57:53.803Z,5.01
2023-02-05T02:01:16.294Z,5.16
2023-02-05T02:17:29.054Z,5.34
2023-02-05T02:21:43.264Z,5.17
2023-02-05T02:25:10.414Z,5.55
2023-02-05T02:29:17.944Z,5.37
2023-02-05T02:33:19.996Z,5.34
2023-02-05T02:37:03.970Z,5.40
2023-02-05T02:41:26.780Z,5.36
2023-02-05T02:45:45.782Z,5.28
2023-02-05T02:54:55.630Z,5.44
2023-02-05T02:58:57.990Z,5.37
2023-02-05T03:02:13.131Z,5.45
2023-02-05T03:05:37.469Z,5.22
2023-02-05T03:09:06.450Z,5.48
2023-02-05T03:12:16.506Z,5.64
2023-02-05T03:15:38.294Z,5.58
2023-02-05T03:19:01.545Z,5.77
2023-02-05T03:22:18.542Z,5.43
2023-02-05T03:29:26.544Z,5.56
2023-02-05T03:33:05.806Z,5.47
2023-02-05T03:37:01.551Z,5.37
2023-02-05T03:40:21.558Z,5.72
2023-02-05T03:44:13.406Z,5.71
2023-02-05T03:48:05.567Z,5.57
2023-02-05T03:51:18.139Z,5.54
2023-02-05T03:55:14.690Z,5.43
2023-02-05T03:59:02.639Z,5.58
2023-02-05T04:02:18.570Z,5.85
2023-02-05T04:05:36.568Z,5.60
2023-02-05T04:08:54.261Z,5.94
2023-02-05T04:12:13.213Z,6.12
2023-02-05T04:19:05.068Z,5.67
2023-02-05T04:22:13.596Z,5.75
2023-02-05T04:25:45.977Z,5.84
2023-02-05T04:28:54.363Z,5.80
2023-02-05T04:32:13.643Z,5.94
2023-02-05T04:35:50.047Z,5.97
2023-02-05T04:39:04.667Z,5.90
2023-02-05T04:42:17.494Z,5.88
2023-02-05T04:45:44.257Z,6.00
2023-02-05T04:49:02.465Z,5.94
2023-02-05T04:52:10.100Z,5.80
2023-02-05T04:55:21.073Z,5.80
2023-02-05T05:01:52.809Z,5.98
2023-02-05T05:05:03.891Z,5.97
2023-02-05T05:12:04.504Z,5.62
2023-02-05T05:15:12.170Z,5.81
2023-02-05T05:18:36.527Z,5.77
2023-02-05T05:21:54.061Z,5.82
2023-02-05T05:25:10.427Z,5.82
2023-02-05T05:28:24.976Z,5.86
2023-02-05T05:31:49.013Z,5.54
2023-02-05T05:35:13.252Z,5.57
2023-02-05T05:38:26.736Z,5.49
2023-02-05T05:42:10.848Z,5.68
2023-02-05T05:49:05.360Z,6.00
2023-02-05T05:52:13.458Z,6.16
2023-02-05T05:55:22.192Z,6.38
2023-02-05T05:58:33.954Z,5.89
2023-02-05T06:02:02.049Z,6.30
2023-02-05T06:05:13.757Z,6.42
2023-02-05T06:08:35.492Z,6.19
2023-02-05T06:11:50.467Z,5.97
2023-02-05T06:15:04.785Z,6.26
2023-02-05T06:18:13.815Z,6.04
2023-02-05T06:21:24.782Z,5.72
2023-02-05T06:24:49.481Z,5.55
2023-02-05T06:28:12.918Z,5.69
2023-02-05T06:31:16.858Z,5.28
2023-02-05T06:34:26.692Z,5.84
2023-02-05T06:37:47.559Z,5.30
2023-02-05T06:41:34.528Z,5.67
2023-02-05T06:45:17.915Z,5.29
2023-02-05T06:48:35.577Z,5.45
2023-02-05T06:52:18.007Z,5.48
2023-02-05T06:59:18.226Z,5.30
2023-02-05T07:02:33.280Z,5.71
2023-02-05T07:13:18.039Z,5.76
2023-02-05T07:17:01.523Z,5.63
2023-02-05T07:20:06.490Z,5.51
2023-02-05T07:23:50.653Z,5.51
2023-02-05T07:27:14.424Z,5.63
2023-02-05T07:30:37.684Z,5.58
2023-02-05T07:34:36.163Z,5.55
2023-02-05T07:37:54.110Z,5.85
2023-02-05T07:41:03.453Z,5.37
2023-02-05T07:44:17.588Z,5.36
2023-02-05T07:59:12.079Z,6.14
2023-02-05T08:06:33.644Z,5.91
2023-02-05T08:10:01.532Z,6.02
2023-02-05T08:13:14.792Z,6.19
2023-02-05T08:16:53.897Z,6.12
2023-02-05T08:20:14.019Z,6.42
2023-02-05T08:24:13.166Z,6.10
2023-02-05T08:27:53.069Z,6.37
2023-02-05T08:31:18.064Z,6.02
2023-02-05T08:38:16.028Z,6.16
2023-02-05T08:45:09.041Z,6.40
2023-02-05T08:48:22.039Z,6.33
2023-02-05T08:51:45.833Z,6.28
2023-02-05T08:58:17.397Z,6.34
2023-02-05T09:01:38.220Z,6.29
2023-02-05T09:05:14.182Z,6.34
2023-02-05T09:08:49.938Z,6.37
2023-02-05T09:12:09.734Z,6.19
2023-02-05T09:15:22.327Z,6.20
2023-02-05T09:18:49.980Z,6.20
2023-02-05T09:22:02.193Z,6.28
2023-02-05T09:25:36.298Z,6.49
2023-02-05T09:28:46.576Z,6.17
2023-02-05T09:32:06.511Z,6.35
2023-02-05T09:35:22.332Z,6.25
2023-02-05T09:42:38.788Z,6.41
2023-02-05T09:45:59.195Z,6.44
2023-02-05T09:49:42.490Z,6.48
2023-02-05T09:56:37.339Z,6.53
2023-02-05T10:00:05.602Z,6.65
2023-02-05T10:03:33.450Z,6.14
2023-02-05T10:07:25.359Z,6.34
2023-02-05T10:11:04.276Z,6.14
2023-02-05T10:14:45.050Z,6.50
2023-02-05T10:18:33.641Z,6.44
2023-02-05T10:22:05.852Z,6.25
2023-02-05T10:34:06.499Z,6.27
2023-02-05T10:37:25.950Z,6.59
2023-02-05T10:40:33.994Z,6.75
2023-02-05T10:44:04.783Z,6.66
2023-02-05T10:47:45.656Z,6.65
2023-02-05T10:51:05.647Z,6.48
2023-02-05T10:54:18.599Z,6.68
2023-02-05T10:57:38.793Z,6.98
2023-02-05T11:00:54.623Z,6.20
2023-02-05T11:04:21.613Z,6.66
2023-02-05T11:07:46.298Z,6.63
2023-02-05T11:10:57.089Z,6.37
2023-02-05T11:14:14.116Z,6.39
2023-02-05T11:17:42.008Z,6.62
2023-02-05T11:24:44.077Z,6.63
2023-02-05T11:27:49.545Z,6.83
2023-02-05T11:31:02.125Z,6.92
2023-02-05T11:34:09.646Z,6.66
2023-02-05T11:37:20.629Z,6.71
2023-02-05T11:41:09.669Z,6.22
2023-02-05T11:45:10.575Z,6.34
2023-02-05T11:48:45.037Z,6.98
2023-02-05T11:52:09.739Z,6.73
2023-02-05T11:55:18.146Z,6.66
2023-02-05T11:58:46.224Z,6.67
2023-02-05T12:01:55.107Z,7.08
2023-02-05T12:05:06.313Z,6.73
2023-02-05T12:08:42.743Z,6.85
2023-02-05T12:12:31.233Z,6.82
2023-02-05T12:15:55.121Z,6.92
2023-02-05T12:19:10.499Z,6.91
2023-02-05T12:23:05.204Z,7.00
2023-02-05T12:26:51.632Z,6.63
2023-02-05T12:30:46.662Z,6.62
2023-02-05T12:34:18.345Z,6.67
2023-02-05T12:38:04.439Z,6.76
2023-02-05T12:41:22.422Z,6.78
2023-02-05T12:45:10.439Z,6.61
2023-02-05T12:48:29.695Z,6.73
2023-02-05T12:52:10.169Z,6.49
2023-02-05T12:55:51.794Z,6.40
2023-02-05T12:59:06.453Z,6.49
2023-02-05T13:06:45.987Z,6.98
2023-02-05T13:10:08.813Z,6.82
2023-02-05T13:13:21.899Z,6.65
2023-02-05T13:17:01.729Z,6.49
2023-02-05T13:20:34.496Z,6.38
2023-02-05T13:24:26.851Z,6.83
2023-02-05T13:28:37.219Z,6.56
2023-02-05T13:32:10.659Z,6.71
2023-02-05T13:35:26.665Z,6.97
2023-02-05T13:39:06.704Z,6.73
2023-02-05T13:42:41.710Z,6.69
2023-02-05T13:46:22.606Z,6.49
2023-02-05T13:50:41.197Z,6.90
2023-02-05T14:02:26.425Z,6.26
2023-02-05T14:10:26.378Z,6.60
2023-02-05T14:14:09.889Z,6.58
2023-02-05T14:17:54.401Z,6.95
2023-02-05T14:24:56.487Z,6.67
2023-02-05T14:28:45.283Z,7.03
2023-02-05T14:32:22.008Z,6.86
2023-02-05T14:35:58.393Z,6.71
2023-02-05T14:39:17.075Z,6.41
2023-02-05T14:42:35.273Z,6.67
2023-02-05T14:45:49.869Z,6.92
2023-02-05T14:49:09.614Z,6.83
2023-02-05T14:52:34.457Z,6.52
2023-02-05T14:56:05.688Z,6.95
2023-02-05T14:59:25.671Z,7.10
2023-02-05T15:03:17.464Z,6.98
2023-02-05T15:06:25.611Z,6.80
2023-02-05T15:10:04.233Z,6.85
2023-02-05T15:13:34.243Z,6.32
2023-02-05T15:16:45.582Z,6.22
2023-02-05T15:20:10.753Z,6.51
2023-02-05T15:23:44.037Z,6.26
2023-02-05T15:26:53.917Z,5.99
2023-02-05T15:30:10.064Z,6.49
2023-02-05T15:33:34.305Z,6.33
2023-02-05T15:36:58.828Z,6.35
2023-02-05T15:40:32.831Z,6.49
2023-02-05T15:44:18.471Z,6.40
2023-02-05T15:47:44.799Z,6.54
2023-02-05T15:51:32.204Z,6.33
2023-02-05T15:54:37.039Z,6.27
2023-02-05T15:58:31.601Z,6.26
2023-02-05T16:01:42.460Z,6.21
2023-02-05T16:04:56.729Z,5.79
2023-02-05T16:08:09.408Z,6.40
2023-02-05T16:11:19.792Z,6.24
2023-02-05T16:14:33.920Z,6.26
2023-02-05T16:17:59.967Z,6.02
2023-02-05T16:21:21.511Z,5.91
2023-02-05T16:24:45.978Z,6.19
2023-02-05T16:28:06.170Z,6.03
2023-02-05T16:31:13.175Z,6.14
2023-02-05T16:34:37.520Z,6.10
2023-02-05T16:37:53.905Z,5.90
2023-02-05T16:41:08.963Z,5.81
2023-02-05T16:44:18.265Z,5.92
2023-02-05T16:51:46.639Z,5.69
2023-02-05T16:55:11.879Z,5.75
2023-02-05T16:58:45.577Z,6.02
2023-02-05T17:02:02.460Z,5.56
2023-02-05T17:05:09.889Z,5.79
2023-02-05T17:08:24.498Z,5.72
2023-02-05T17:11:56.794Z,5.37
2023-02-05T17:19:49.260Z,5.13
2023-02-05T17:23:17.398Z,5.22
2023-02-05T17:26:25.749Z,5.18
2023-02-05T17:29:37.190Z,5.21
2023-02-05T17:33:02.693Z,4.84
2023-02-05T17:36:18.340Z,5.25
2023-02-05T17:39:21.951Z,5.20
2023-02-05T17:43:45.544Z,4.31
2023-02-05T17:46:50.426Z,5.02
2023-02-05T18:01:25.158Z,5.23
2023-02-05T18:07:59.482Z,4.77
2023-02-05T18:11:45.739Z,5.30
2023-02-05T18:14:56.351Z,5.24
2023-02-05T18:18:04.688Z,5.25
2023-02-05T18:21:23.902Z,5.44
2023-02-05T18:24:56.459Z,5.33
2023-02-05T18:28:05.649Z,5.46
2023-02-05T18:31:35.642Z,5.40
2023-02-05T18:35:22.816Z,4.97
2023-02-05T18:38:38.952Z,5.26
2023-02-05T18:41:50.920Z,4.81
2023-02-05T18:45:01.919Z,4.89
2023-02-05T18:52:54.470Z,4.37
2023-02-05T19:06:17.345Z,5.24
2023-02-05T19:11:09.910Z,5.14
2023-02-05T19:25:42.187Z,4.68
2023-02-05T19:28:45.697Z,5.37
2023-02-05T19:32:02.278Z,5.15
2023-02-05T19:35:14.800Z,4.83
2023-02-05T19:39:02.326Z,5.02
2023-02-05T19:42:09.522Z,4.82
2023-02-05T19:45:17.821Z,4.91
2023-02-05T19:48:24.119Z,5.12
2023-02-05T19:51:37.558Z,4.98
2023-02-05T19:58:29.928Z,4.68
2023-02-05T20:01:54.379Z,4.46
2023-02-05T20:05:02.750Z,4.32
2023-02-05T20:08:10.245Z,4.54
2023-02-05T20:11:26.853Z,4.73
2023-02-05T20:15:02.520Z,4.20
2023-02-05T20:18:06.107Z,4.66
2023-02-05T20:21:09.703Z,4.37
2023-02-05T20:24:14.818Z,4.43
2023-02-05T20:27:21.953Z,4.29
2023-02-05T20:31:16.309Z,4.23
2023-02-05T20:34:38.195Z,4.37
2023-02-05T20:37:58.452Z,4.36
2023-02-05T20:40:54.595Z,4.28
2023-02-05T20:44:00.437Z,4.18
2023-02-05T20:47:06.808Z,4.47
2023-02-05T20:50:09.751Z,4.29
2023-02-05T20:53:25.713Z,4.39
2023-02-05T20:56:33.806Z,4.10
2023-02-05T20:59:42.176Z,3.89
2023-02-05T21:06:22.269Z,4.08
2023-02-05T21:09:34.179Z,4.03
2023-02-05T21:12:42.896Z,3.93
2023-02-05T21:16:02.180Z,4.02
2023-02-05T21:20:04.705Z,3.95
2023-02-05T21:23:56.908Z,4.24
2023-02-05T21:32:00.098Z,3.94
2023-02-05T21:43:49.474Z,3.90
2023-02-05T21:47:38.015Z,3.79
2023-02-05T21:51:16.918Z,3.91
2023-02-05T21:55:02.600Z,4.06
2023-02-05T22:02:26.033Z,4.12
2023-02-05T22:05:46.143Z,4.20
2023-02-05T22:08:50.000Z,4.42
2023-02-05T22:12:26.985Z,4.25
2023-02-05T22:20:36.081Z,4.29
2023-02-05T22:24:02.559Z,5.00
2023-02-05T22:27:13.013Z,5.05
2023-02-05T22:30:22.000Z,5.08
2023-02-05T22:33:34.716Z,5.33
2023-02-05T22:37:09.988Z,5.02
2023-02-05T22:40:41.436Z,5.23
2023-02-05T22:43:49.789Z,5.23
2023-02-05T22:47:01.523Z,5.32
2023-02-05T22:50:06.748Z,5.53
2023-02-05T22:53:17.705Z,5.26
2023-02-05T22:56:26.018Z,5.35
2023-02-05T23:02:57.064Z,5.37
2023-02-05T23:06:01.774Z,5.67
2023-02-05T23:09:34.535Z,5.63
2023-02-05T23:12:52.764Z,5.63
2023-02-05T23:15:54.596Z,5.73
2023-02-05T23:19:04.387Z,5.95
2023-02-05T23:22:09.646Z,5.79
2023-02-05T23:25:17.489Z,5.89
2023-02-05T23:28:37.729Z,5.87
2023-02-05T23:31:42.113Z,5.80
2023-02-05T23:34:49.632Z,5.88
2023-02-05T23:38:01.896Z,6.21
2023-02-05T23:41:10.973Z,6.04
2023-02-05T23:44:36.752Z,5.90
2023-02-05T23:47:45.932Z,6.16
2023-02-05T23:51:04.999Z,6.17
2023-02-05T23:54:06.443Z,6.00
2023-02-05T23:57:13.897Z,6.32
